sensor_id;sensor_type;location;lat;lon;timestamp;P1;durP1;ratioP1;P2;durP2;ratioP2
39434;SDS011;66825;51.880;-0.518;2024-03-23T00:52:58;2.25;;;0.95;;
39434;SDS011;66825;51.880;-0.518;2024-03-23T00:55:23;1.63;;;1.00;;
39434;SDS011;66825;51.880;-0.518;2024-03-23T00:57:49;2.40;;;1.00;;
39434;SDS011;66825;51.880;-0.518;2024-03-23T01:00:15;2.00;;;1.00;;
39434;SDS011;66825;51.880;-0.518;2024-03-23T01:02:41;1.52;;;0.82;;
39434;SDS011;66825;51.880;-0.518;2024-03-23T01:05:06;1.50;;;0.85;;
39434;SDS011;66825;51.880;-0.518;2024-03-23T01:07:32;1.73;;;0.85;;
39434;SDS011;66825;51.880;-0.518;2024-03-23T01:09:57;2.15;;;0.93;;
39434;SDS011;66825;51.880;-0.518;2024-03-23T01:12:22;1.85;;;0.82;;
39434;SDS011;66825;51.880;-0.518;2024-03-23T01:14:48;2.67;;;1.08;;
39434;SDS011;66825;51.880;-0.518;2024-03-23T01:17:13;1.90;;;0.70;;
39434;SDS011;66825;51.880;-0.518;2024-03-23T01:19:39;2.08;;;0.95;;
39434;SDS011;66825;51.880;-0.518;2024-03-23T01:22:06;1.70;;;0.90;;
39434;SDS011;66825;51.880;-0.518;2024-03-23T01:24:32;1.88;;;0.90;;
39434;SDS011;66825;51.880;-0.518;2024-03-23T01:26:58;2.28;;;0.88;;
39434;SDS011;66825;51.880;-0.518;2024-03-23T01:29:23;1.95;;;0.80;;
39434;SDS011;66825;51.880;-0.518;2024-03-23T01:31:49;2.67;;;0.90;;
39434;SDS011;66825;51.880;-0.518;2024-03-23T01:34:14;2.05;;;0.70;;
39434;SDS011;66825;51.880;-0.518;2024-03-23T01:36:39;2.22;;;0.90;;
39434;SDS011;66825;51.880;-0.518;2024-03-23T01:39:05;1.90;;;0.90;;
39434;SDS011;66825;51.880;-0.518;2024-03-23T01:41:30;2.05;;;0.70;;
39434;SDS011;66825;51.880;-0.518;2024-03-23T01:43:56;1.65;;;0.73;;
39434;SDS011;66825;51.880;-0.518;2024-03-23T01:46:22;1.63;;;0.90;;
39434;SDS011;66825;51.880;-0.518;2024-03-23T01:48:47;1.70;;;0.70;;
39434;SDS011;66825;51.880;-0.518;2024-03-23T01:51:13;1.30;;;0.63;;
39434;SDS011;66825;51.880;-0.518;2024-03-23T01:53:39;2.33;;;0.95;;
39434;SDS011;66825;51.880;-0.518;2024-03-23T01:56:04;1.27;;;0.70;;
39434;SDS011;66825;51.880;-0.518;2024-03-23T01:58:30;1.70;;;0.60;;
39434;SDS011;66825;51.880;-0.518;2024-03-23T02:00:59;1.52;;;0.70;;
39434;SDS011;66825;51.880;-0.518;2024-03-23T02:03:25;2.60;;;0.88;;
39434;SDS011;66825;51.880;-0.518;2024-03-23T02:05:51;2.17;;;0.80;;
39434;SDS011;66825;51.880;-0.518;2024-03-23T02:08:18;2.05;;;0.70;;
39434;SDS011;66825;51.880;-0.518;2024-03-23T02:10:46;1.40;;;0.70;;
39434;SDS011;66825;51.880;-0.518;2024-03-23T02:13:13;1.35;;;0.60;;
39434;SDS011;66825;51.880;-0.518;2024-03-23T02:15:39;2.05;;;0.77;;
39434;SDS011;66825;51.880;-0.518;2024-03-23T02:18:05;1.45;;;0.70;;
39434;SDS011;66825;51.880;-0.518;2024-03-23T02:20:32;1.45;;;0.60;;
39434;SDS011;66825;51.880;-0.518;2024-03-23T02:22:57;1.50;;;0.60;;
39434;SDS011;66825;51.880;-0.518;2024-03-23T02:25:23;1.98;;;0.80;;
39434;SDS011;66825;51.880;-0.518;2024-03-23T02:27:48;1.25;;;0.65;;
39434;SDS011;66825;51.880;-0.518;2024-03-23T02:30:14;3.08;;;1.00;;
39434;SDS011;66825;51.880;-0.518;2024-03-23T02:32:40;1.70;;;0.60;;
39434;SDS011;66825;51.880;-0.518;2024-03-23T02:35:06;2.72;;;0.75;;
39434;SDS011;66825;51.880;-0.518;2024-03-23T02:37:31;0.95;;;0.50;;
39434;SDS011;66825;51.880;-0.518;2024-03-23T02:39:58;1.00;;;0.60;;
39434;SDS011;66825;51.880;-0.518;2024-03-23T02:42:23;1.70;;;0.90;;
39434;SDS011;66825;51.880;-0.518;2024-03-23T02:44:49;1.42;;;0.63;;
39434;SDS011;66825;51.880;-0.518;2024-03-23T02:47:14;1.63;;;0.70;;
39434;SDS011;66825;51.880;-0.518;2024-03-23T02:49:40;1.40;;;0.70;;
39434;SDS011;66825;51.880;-0.518;2024-03-23T02:52:05;1.27;;;0.70;;
39434;SDS011;66825;51.880;-0.518;2024-03-23T02:54:31;1.90;;;0.80;;
39434;SDS011;66825;51.880;-0.518;2024-03-23T02:56:56;2.22;;;0.98;;
39434;SDS011;66825;51.880;-0.518;2024-03-23T02:59:21;1.98;;;0.65;;
39434;SDS011;66825;51.880;-0.518;2024-03-23T03:01:47;1.67;;;0.75;;
39434;SDS011;66825;51.880;-0.518;2024-03-23T03:04:13;1.63;;;0.68;;
39434;SDS011;66825;51.880;-0.518;2024-03-23T03:06:38;2.00;;;0.70;;
39434;SDS011;66825;51.880;-0.518;2024-03-23T03:09:03;2.22;;;0.90;;
39434;SDS011;66825;51.880;-0.518;2024-03-23T03:11:29;1.83;;;0.60;;
39434;SDS011;66825;51.880;-0.518;2024-03-23T03:13:55;1.52;;;0.70;;
39434;SDS011;66825;51.880;-0.518;2024-03-23T03:16:20;1.42;;;0.70;;
39434;SDS011;66825;51.880;-0.518;2024-03-23T03:18:46;1.30;;;0.60;;
39434;SDS011;66825;51.880;-0.518;2024-03-23T03:21:11;2.10;;;0.80;;
39434;SDS011;66825;51.880;-0.518;2024-03-23T03:23:38;1.95;;;0.60;;
39434;SDS011;66825;51.880;-0.518;2024-03-23T03:26:04;1.80;;;0.63;;
39434;SDS011;66825;51.880;-0.518;2024-03-23T03:28:30;2.13;;;0.80;;
39434;SDS011;66825;51.880;-0.518;2024-03-23T03:30:58;1.90;;;0.70;;
39434;SDS011;66825;51.880;-0.518;2024-03-23T03:33:26;1.85;;;0.57;;
39434;SDS011;66825;51.880;-0.518;2024-03-23T03:35:52;1.60;;;0.57;;
39434;SDS011;66825;51.880;-0.518;2024-03-23T03:38:18;1.60;;;0.65;;
39434;SDS011;66825;51.880;-0.518;2024-03-23T03:40:44;1.33;;;0.68;;
39434;SDS011;66825;51.880;-0.518;2024-03-23T03:43:10;1.67;;;0.60;;
39434;SDS011;66825;51.880;-0.518;2024-03-23T03:45:35;1.30;;;0.80;;
39434;SDS011;66825;51.880;-0.518;2024-03-23T03:48:01;1.75;;;0.70;;
39434;SDS011;66825;51.880;-0.518;2024-03-23T03:50:26;0.95;;;0.50;;
39434;SDS011;66825;51.880;-0.518;2024-03-23T03:52:52;1.95;;;0.70;;
39434;SDS011;66825;51.880;-0.518;2024-03-23T03:55:17;1.42;;;0.70;;
39434;SDS011;66825;51.880;-0.518;2024-03-23T03:57:43;1.27;;;0.70;;
39434;SDS011;66825;51.880;-0.518;2024-03-23T04:00:08;2.17;;;0.80;;
39434;SDS011;66825;51.880;-0.518;2024-03-23T04:02:38;1.20;;;0.65;;
39434;SDS011;66825;51.880;-0.518;2024-03-23T04:05:03;1.50;;;0.70;;
39434;SDS011;66825;51.880;-0.518;2024-03-23T04:07:29;1.45;;;0.70;;
39434;SDS011;66825;51.880;-0.518;2024-03-23T04:09:55;1.60;;;0.63;;
39434;SDS011;66825;51.880;-0.518;2024-03-23T04:12:20;1.65;;;0.65;;
39434;SDS011;66825;51.880;-0.518;2024-03-23T04:14:46;1.40;;;0.63;;
39434;SDS011;66825;51.880;-0.518;2024-03-23T04:17:11;1.67;;;0.80;;
39434;SDS011;66825;51.880;-0.518;2024-03-23T04:19:37;1.35;;;0.70;;
39434;SDS011;66825;51.880;-0.518;2024-03-23T04:22:02;2.30;;;0.80;;
39434;SDS011;66825;51.880;-0.518;2024-03-23T04:24:29;1.35;;;0.60;;
39434;SDS011;66825;51.880;-0.518;2024-03-23T04:26:54;2.17;;;0.80;;
39434;SDS011;66825;51.880;-0.518;2024-03-23T04:29:20;2.63;;;0.90;;
39434;SDS011;66825;51.880;-0.518;2024-03-23T04:31:45;1.65;;;0.70;;
39434;SDS011;66825;51.880;-0.518;2024-03-23T04:34:11;1.70;;;0.80;;
39434;SDS011;66825;51.880;-0.518;2024-03-23T04:36:36;1.75;;;0.70;;
39434;SDS011;66825;51.880;-0.518;2024-03-23T04:39:02;2.17;;;1.10;;
39434;SDS011;66825;51.880;-0.518;2024-03-23T04:41:27;1.98;;;0.75;;
39434;SDS011;66825;51.880;-0.518;2024-03-23T04:43:53;1.50;;;0.70;;
39434;SDS011;66825;51.880;-0.518;2024-03-23T04:46:19;1.30;;;0.70;;
39434;SDS011;66825;51.880;-0.518;2024-03-23T04:48:46;2.67;;;0.82;;
39434;SDS011;66825;51.880;-0.518;2024-03-23T04:51:19;1.10;;;0.52;;
39434;SDS011;66825;51.880;-0.518;2024-03-23T04:53:46;1.70;;;0.70;;
39434;SDS011;66825;51.880;-0.518;2024-03-23T04:56:13;1.27;;;0.77;;
39434;SDS011;66825;51.880;-0.518;2024-03-23T04:58:38;2.88;;;0.70;;
39434;SDS011;66825;51.880;-0.518;2024-03-23T05:01:04;1.77;;;0.80;;
39434;SDS011;66825;51.880;-0.518;2024-03-23T05:03:29;2.13;;;0.60;;
39434;SDS011;66825;51.880;-0.518;2024-03-23T05:05:55;1.52;;;0.70;;
39434;SDS011;66825;51.880;-0.518;2024-03-23T05:08:21;1.88;;;0.75;;
39434;SDS011;66825;51.880;-0.518;2024-03-23T05:10:46;1.63;;;0.70;;
39434;SDS011;66825;51.880;-0.518;2024-03-23T05:13:12;1.50;;;0.65;;
39434;SDS011;66825;51.880;-0.518;2024-03-23T05:15:37;1.50;;;0.70;;
39434;SDS011;66825;51.880;-0.518;2024-03-23T05:18:03;1.48;;;0.75;;
39434;SDS011;66825;51.880;-0.518;2024-03-23T05:20:30;1.83;;;0.80;;
39434;SDS011;66825;51.880;-0.518;2024-03-23T05:22:56;1.92;;;0.90;;
39434;SDS011;66825;51.880;-0.518;2024-03-23T05:25:21;1.40;;;0.80;;
39434;SDS011;66825;51.880;-0.518;2024-03-23T05:27:47;1.88;;;0.73;;
39434;SDS011;66825;51.880;-0.518;2024-03-23T05:30:14;2.03;;;0.77;;
39434;SDS011;66825;51.880;-0.518;2024-03-23T05:32:39;1.42;;;0.60;;
39434;SDS011;66825;51.880;-0.518;2024-03-23T05:35:09;1.48;;;0.68;;
39434;SDS011;66825;51.880;-0.518;2024-03-23T05:37:35;1.70;;;0.70;;
39434;SDS011;66825;51.880;-0.518;2024-03-23T05:40:01;1.75;;;0.73;;
39434;SDS011;66825;51.880;-0.518;2024-03-23T05:42:28;2.75;;;0.70;;
39434;SDS011;66825;51.880;-0.518;2024-03-23T05:44:54;1.58;;;0.63;;
39434;SDS011;66825;51.880;-0.518;2024-03-23T05:47:19;2.38;;;0.80;;
39434;SDS011;66825;51.880;-0.518;2024-03-23T05:49:45;1.40;;;0.70;;
39434;SDS011;66825;51.880;-0.518;2024-03-23T05:52:11;0.88;;;0.40;;
39434;SDS011;66825;51.880;-0.518;2024-03-23T05:54:37;1.90;;;0.75;;
39434;SDS011;66825;51.880;-0.518;2024-03-23T05:57:03;1.92;;;0.85;;
39434;SDS011;66825;51.880;-0.518;2024-03-23T05:59:28;1.50;;;0.70;;
39434;SDS011;66825;51.880;-0.518;2024-03-23T06:01:54;1.63;;;0.75;;
39434;SDS011;66825;51.880;-0.518;2024-03-23T06:04:20;2.13;;;0.70;;
39434;SDS011;66825;51.880;-0.518;2024-03-23T06:06:46;1.55;;;0.70;;
39434;SDS011;66825;51.880;-0.518;2024-03-23T06:09:11;1.42;;;0.68;;
39434;SDS011;66825;51.880;-0.518;2024-03-23T06:11:37;1.02;;;0.60;;
39434;SDS011;66825;51.880;-0.518;2024-03-23T06:14:02;1.38;;;0.68;;
39434;SDS011;66825;51.880;-0.518;2024-03-23T06:16:28;2.55;;;1.10;;
39434;SDS011;66825;51.880;-0.518;2024-03-23T06:18:55;1.58;;;0.88;;
39434;SDS011;66825;51.880;-0.518;2024-03-23T06:21:21;1.85;;;0.63;;
39434;SDS011;66825;51.880;-0.518;2024-03-23T06:23:50;1.63;;;0.70;;
39434;SDS011;66825;51.880;-0.518;2024-03-23T06:26:20;2.17;;;0.70;;
39434;SDS011;66825;51.880;-0.518;2024-03-23T06:28:46;1.75;;;0.65;;
39434;SDS011;66825;51.880;-0.518;2024-03-23T06:31:12;2.05;;;0.80;;
39434;SDS011;66825;51.880;-0.518;2024-03-23T06:33:38;1.65;;;0.70;;
39434;SDS011;66825;51.880;-0.518;2024-03-23T06:36:04;1.85;;;0.60;;
39434;SDS011;66825;51.880;-0.518;2024-03-23T06:38:30;1.50;;;0.82;;
39434;SDS011;66825;51.880;-0.518;2024-03-23T06:40:56;1.65;;;0.70;;
39434;SDS011;66825;51.880;-0.518;2024-03-23T06:43:21;2.47;;;0.80;;
39434;SDS011;66825;51.880;-0.518;2024-03-23T06:45:53;1.38;;;0.60;;
39434;SDS011;66825;51.880;-0.518;2024-03-23T06:48:19;2.33;;;0.90;;
39434;SDS011;66825;51.880;-0.518;2024-03-23T06:50:45;1.42;;;0.60;;
39434;SDS011;66825;51.880;-0.518;2024-03-23T06:53:14;2.33;;;0.80;;
39434;SDS011;66825;51.880;-0.518;2024-03-23T06:55:40;1.90;;;0.70;;
39434;SDS011;66825;51.880;-0.518;2024-03-23T06:58:06;2.60;;;0.80;;
39434;SDS011;66825;51.880;-0.518;2024-03-23T07:00:32;1.92;;;0.80;;
39434;SDS011;66825;51.880;-0.518;2024-03-23T07:02:59;1.60;;;0.60;;
39434;SDS011;66825;51.880;-0.518;2024-03-23T07:05:25;3.03;;;0.70;;
39434;SDS011;66825;51.880;-0.518;2024-03-23T07:07:50;1.45;;;0.75;;
39434;SDS011;66825;51.880;-0.518;2024-03-23T07:10:16;1.85;;;0.75;;
39434;SDS011;66825;51.880;-0.518;2024-03-23T07:12:42;2.50;;;1.02;;
39434;SDS011;66825;51.880;-0.518;2024-03-23T07:15:08;1.88;;;0.82;;
39434;SDS011;66825;51.880;-0.518;2024-03-23T07:17:34;1.77;;;0.82;;
39434;SDS011;66825;51.880;-0.518;2024-03-23T07:20:00;1.45;;;0.60;;
39434;SDS011;66825;51.880;-0.518;2024-03-23T07:22:29;2.15;;;1.00;;
39434;SDS011;66825;51.880;-0.518;2024-03-23T07:25:00;0.98;;;0.57;;
39434;SDS011;66825;51.880;-0.518;2024-03-23T07:27:26;1.23;;;0.57;;
39434;SDS011;66825;51.880;-0.518;2024-03-23T07:29:51;1.50;;;0.80;;
39434;SDS011;66825;51.880;-0.518;2024-03-23T07:32:17;1.73;;;0.80;;
39434;SDS011;66825;51.880;-0.518;2024-03-23T07:34:42;2.33;;;0.80;;
39434;SDS011;66825;51.880;-0.518;2024-03-23T07:37:09;2.53;;;0.90;;
39434;SDS011;66825;51.880;-0.518;2024-03-23T07:39:35;1.50;;;0.70;;
39434;SDS011;66825;51.880;-0.518;2024-03-23T07:42:01;2.28;;;0.77;;
39434;SDS011;66825;51.880;-0.518;2024-03-23T07:44:27;1.55;;;0.82;;
39434;SDS011;66825;51.880;-0.518;2024-03-23T07:46:53;1.80;;;0.82;;
39434;SDS011;66825;51.880;-0.518;2024-03-23T07:49:18;2.47;;;0.80;;
39434;SDS011;66825;51.880;-0.518;2024-03-23T07:51:43;2.13;;;0.82;;
39434;SDS011;66825;51.880;-0.518;2024-03-23T07:54:10;3.53;;;0.88;;
39434;SDS011;66825;51.880;-0.518;2024-03-23T07:56:35;2.05;;;0.80;;
39434;SDS011;66825;51.880;-0.518;2024-03-23T07:59:01;2.33;;;0.80;;
39434;SDS011;66825;51.880;-0.518;2024-03-23T08:01:28;2.47;;;0.90;;
39434;SDS011;66825;51.880;-0.518;2024-03-23T08:03:53;1.70;;;0.73;;
39434;SDS011;66825;51.880;-0.518;2024-03-23T08:06:20;2.90;;;0.80;;
39434;SDS011;66825;51.880;-0.518;2024-03-23T08:08:48;1.35;;;0.73;;
39434;SDS011;66825;51.880;-0.518;2024-03-23T08:11:14;1.80;;;0.75;;
39434;SDS011;66825;51.880;-0.518;2024-03-23T08:13:40;2.20;;;0.80;;
39434;SDS011;66825;51.880;-0.518;2024-03-23T08:16:07;2.25;;;0.90;;
39434;SDS011;66825;51.880;-0.518;2024-03-23T08:18:35;2.55;;;1.00;;
39434;SDS011;66825;51.880;-0.518;2024-03-23T08:21:02;2.53;;;0.98;;
39434;SDS011;66825;51.880;-0.518;2024-03-23T08:23:31;1.42;;;0.60;;
39434;SDS011;66825;51.880;-0.518;2024-03-23T08:26:06;3.78;;;0.90;;
39434;SDS011;66825;51.880;-0.518;2024-03-23T08:28:33;2.28;;;0.80;;
39434;SDS011;66825;51.880;-0.518;2024-03-23T08:31:03;2.50;;;0.90;;
39434;SDS011;66825;51.880;-0.518;2024-03-23T08:33:30;2.05;;;0.75;;
39434;SDS011;66825;51.880;-0.518;2024-03-23T08:35:57;3.85;;;1.10;;
39434;SDS011;66825;51.880;-0.518;2024-03-23T08:38:24;1.98;;;0.90;;
39434;SDS011;66825;51.880;-0.518;2024-03-23T08:40:56;2.13;;;1.00;;
39434;SDS011;66825;51.880;-0.518;2024-03-23T08:43:22;3.42;;;0.80;;
39434;SDS011;66825;51.880;-0.518;2024-03-23T08:45:48;1.75;;;0.77;;
39434;SDS011;66825;51.880;-0.518;2024-03-23T08:48:13;1.98;;;0.80;;
39434;SDS011;66825;51.880;-0.518;2024-03-23T08:50:38;3.65;;;1.00;;
39434;SDS011;66825;51.880;-0.518;2024-03-23T08:53:04;2.83;;;1.05;;
39434;SDS011;66825;51.880;-0.518;2024-03-23T08:55:29;2.65;;;1.05;;
39434;SDS011;66825;51.880;-0.518;2024-03-23T08:57:55;3.03;;;0.93;;
39434;SDS011;66825;51.880;-0.518;2024-03-23T09:00:21;1.65;;;0.70;;
39434;SDS011;66825;51.880;-0.518;2024-03-23T09:02:50;2.95;;;1.05;;
39434;SDS011;66825;51.880;-0.518;2024-03-23T09:05:15;3.40;;;1.08;;
39434;SDS011;66825;51.880;-0.518;2024-03-23T09:07:41;2.38;;;0.98;;
39434;SDS011;66825;51.880;-0.518;2024-03-23T09:10:06;1.98;;;0.90;;
39434;SDS011;66825;51.880;-0.518;2024-03-23T09:12:32;1.80;;;0.85;;
39434;SDS011;66825;51.880;-0.518;2024-03-23T09:14:58;3.10;;;1.10;;
39434;SDS011;66825;51.880;-0.518;2024-03-23T09:17:23;2.92;;;0.95;;
39434;SDS011;66825;51.880;-0.518;2024-03-23T09:19:48;2.55;;;0.98;;
39434;SDS011;66825;51.880;-0.518;2024-03-23T09:22:14;3.58;;;1.02;;
39434;SDS011;66825;51.880;-0.518;2024-03-23T09:24:40;3.15;;;1.00;;
39434;SDS011;66825;51.880;-0.518;2024-03-23T09:27:05;3.25;;;1.10;;
39434;SDS011;66825;51.880;-0.518;2024-03-23T09:29:31;3.28;;;1.08;;
39434;SDS011;66825;51.880;-0.518;2024-03-23T09:31:56;3.40;;;1.15;;
39434;SDS011;66825;51.880;-0.518;2024-03-23T09:34:22;1.83;;;0.80;;
39434;SDS011;66825;51.880;-0.518;2024-03-23T09:36:50;2.95;;;0.80;;
39434;SDS011;66825;51.880;-0.518;2024-03-23T09:39:16;2.58;;;0.82;;
39434;SDS011;66825;51.880;-0.518;2024-03-23T09:41:42;2.58;;;0.90;;
39434;SDS011;66825;51.880;-0.518;2024-03-23T09:44:08;3.65;;;1.17;;
39434;SDS011;66825;51.880;-0.518;2024-03-23T09:46:34;2.45;;;0.90;;
39434;SDS011;66825;51.880;-0.518;2024-03-23T09:49:01;2.75;;;0.80;;
39434;SDS011;66825;51.880;-0.518;2024-03-23T09:51:30;2.33;;;0.90;;
39434;SDS011;66825;51.880;-0.518;2024-03-23T09:53:56;2.90;;;1.10;;
39434;SDS011;66825;51.880;-0.518;2024-03-23T09:56:22;2.58;;;0.90;;
39434;SDS011;66825;51.880;-0.518;2024-03-23T09:58:48;2.20;;;1.00;;
39434;SDS011;66825;51.880;-0.518;2024-03-23T10:01:14;2.75;;;1.20;;
39434;SDS011;66825;51.880;-0.518;2024-03-23T10:03:46;2.72;;;0.90;;
39434;SDS011;66825;51.880;-0.518;2024-03-23T10:06:12;2.15;;;0.70;;
39434;SDS011;66825;51.880;-0.518;2024-03-23T10:08:37;3.13;;;1.00;;
39434;SDS011;66825;51.880;-0.518;2024-03-23T10:11:12;2.17;;;0.90;;
39434;SDS011;66825;51.880;-0.518;2024-03-23T10:13:41;3.05;;;1.30;;
39434;SDS011;66825;51.880;-0.518;2024-03-23T10:16:08;2.90;;;1.15;;
39434;SDS011;66825;51.880;-0.518;2024-03-23T10:18:36;3.17;;;0.90;;
39434;SDS011;66825;51.880;-0.518;2024-03-23T10:23:34;2.75;;;1.10;;
39434;SDS011;66825;51.880;-0.518;2024-03-23T10:26:17;2.25;;;0.80;;
39434;SDS011;66825;51.880;-0.518;2024-03-23T10:28:52;2.42;;;1.08;;
39434;SDS011;66825;51.880;-0.518;2024-03-23T10:31:18;2.10;;;0.90;;
39434;SDS011;66825;51.880;-0.518;2024-03-23T10:33:45;2.97;;;0.80;;
39434;SDS011;66825;51.880;-0.518;2024-03-23T10:36:11;2.78;;;0.90;;
39434;SDS011;66825;51.880;-0.518;2024-03-23T10:38:39;2.15;;;0.82;;
39434;SDS011;66825;51.880;-0.518;2024-03-23T10:41:06;2.03;;;0.90;;
39434;SDS011;66825;51.880;-0.518;2024-03-23T10:43:36;2.35;;;0.80;;
39434;SDS011;66825;51.880;-0.518;2024-03-23T10:46:02;2.00;;;0.80;;
39434;SDS011;66825;51.880;-0.518;2024-03-23T10:48:28;2.30;;;0.77;;
39434;SDS011;66825;51.880;-0.518;2024-03-23T10:50:54;3.95;;;0.93;;
39434;SDS011;66825;51.880;-0.518;2024-03-23T10:53:21;1.98;;;0.73;;
39434;SDS011;66825;51.880;-0.518;2024-03-23T10:55:50;2.70;;;0.85;;
39434;SDS011;66825;51.880;-0.518;2024-03-23T10:58:16;2.15;;;0.90;;
39434;SDS011;66825;51.880;-0.518;2024-03-23T11:00:46;2.27;;;0.70;;
39434;SDS011;66825;51.880;-0.518;2024-03-23T11:03:30;1.83;;;0.80;;
39434;SDS011;66825;51.880;-0.518;2024-03-23T11:05:57;2.25;;;0.90;;
39434;SDS011;66825;51.880;-0.518;2024-03-23T11:08:35;2.70;;;1.00;;
39434;SDS011;66825;51.880;-0.518;2024-03-23T11:11:11;2.55;;;0.90;;
39434;SDS011;66825;51.880;-0.518;2024-03-23T11:13:42;1.98;;;0.75;;
39434;SDS011;66825;51.880;-0.518;2024-03-23T11:16:14;2.90;;;1.00;;
39434;SDS011;66825;51.880;-0.518;2024-03-23T11:18:40;2.33;;;0.85;;
39434;SDS011;66825;51.880;-0.518;2024-03-23T11:21:07;3.72;;;1.10;;
39434;SDS011;66825;51.880;-0.518;2024-03-23T11:23:33;3.08;;;0.90;;
39434;SDS011;66825;51.880;-0.518;2024-03-23T11:25:58;2.58;;;0.80;;
39434;SDS011;66825;51.880;-0.518;2024-03-23T11:28:24;2.47;;;0.90;;
39434;SDS011;66825;51.880;-0.518;2024-03-23T11:30:49;3.28;;;1.13;;
39434;SDS011;66825;51.880;-0.518;2024-03-23T11:33:15;2.13;;;0.75;;
39434;SDS011;66825;51.880;-0.518;2024-03-23T11:35:40;3.05;;;1.00;;
39434;SDS011;66825;51.880;-0.518;2024-03-23T11:40:39;2.42;;;1.00;;
39434;SDS011;66825;51.880;-0.518;2024-03-23T11:43:10;1.77;;;0.80;;
39434;SDS011;66825;51.880;-0.518;2024-03-23T11:45:38;2.58;;;1.00;;
39434;SDS011;66825;51.880;-0.518;2024-03-23T11:48:21;3.90;;;1.10;;
39434;SDS011;66825;51.880;-0.518;2024-03-23T11:50:49;3.33;;;1.15;;
39434;SDS011;66825;51.880;-0.518;2024-03-23T11:53:16;3.08;;;0.80;;
39434;SDS011;66825;51.880;-0.518;2024-03-23T11:55:51;2.72;;;1.05;;
39434;SDS011;66825;51.880;-0.518;2024-03-23T11:58:19;2.75;;;1.00;;
39434;SDS011;66825;51.880;-0.518;2024-03-23T12:00:49;2.22;;;0.90;;
39434;SDS011;66825;51.880;-0.518;2024-03-23T12:03:18;2.40;;;0.80;;
39434;SDS011;66825;51.880;-0.518;2024-03-23T12:05:50;2.38;;;0.73;;
39434;SDS011;66825;51.880;-0.518;2024-03-23T12:08:25;2.60;;;0.95;;
39434;SDS011;66825;51.880;-0.518;2024-03-23T12:11:05;2.03;;;0.90;;
39434;SDS011;66825;51.880;-0.518;2024-03-23T12:13:36;2.65;;;0.70;;
39434;SDS011;66825;51.880;-0.518;2024-03-23T12:18:40;3.40;;;1.00;;
39434;SDS011;66825;51.880;-0.518;2024-03-23T12:21:07;3.25;;;1.00;;
39434;SDS011;66825;51.880;-0.518;2024-03-23T12:23:33;2.40;;;0.60;;
39434;SDS011;66825;51.880;-0.518;2024-03-23T12:25:59;2.58;;;1.00;;
39434;SDS011;66825;51.880;-0.518;2024-03-23T12:28:25;2.88;;;0.90;;
39434;SDS011;66825;51.880;-0.518;2024-03-23T12:30:51;2.65;;;0.93;;
39434;SDS011;66825;51.880;-0.518;2024-03-23T12:33:17;2.63;;;0.93;;
39434;SDS011;66825;51.880;-0.518;2024-03-23T12:35:43;2.05;;;0.80;;
39434;SDS011;66825;51.880;-0.518;2024-03-23T12:38:09;2.65;;;1.00;;
39434;SDS011;66825;51.880;-0.518;2024-03-23T12:40:34;1.52;;;0.80;;
39434;SDS011;66825;51.880;-0.518;2024-03-23T12:42:59;2.70;;;0.80;;
39434;SDS011;66825;51.880;-0.518;2024-03-23T12:45:25;2.58;;;0.70;;
39434;SDS011;66825;51.880;-0.518;2024-03-23T12:47:50;3.10;;;0.90;;
39434;SDS011;66825;51.880;-0.518;2024-03-23T12:50:18;2.15;;;0.80;;
39434;SDS011;66825;51.880;-0.518;2024-03-23T12:52:44;1.35;;;0.90;;
39434;SDS011;66825;51.880;-0.518;2024-03-23T12:55:10;1.98;;;0.70;;
39434;SDS011;66825;51.880;-0.518;2024-03-23T12:57:35;2.55;;;1.05;;
39434;SDS011;66825;51.880;-0.518;2024-03-23T13:00:01;0.98;;;0.55;;
39434;SDS011;66825;51.880;-0.518;2024-03-23T13:02:28;2.08;;;0.70;;
39434;SDS011;66825;51.880;-0.518;2024-03-23T13:04:54;1.88;;;0.80;;
39434;SDS011;66825;51.880;-0.518;2024-03-23T13:07:20;1.88;;;0.60;;
39434;SDS011;66825;51.880;-0.518;2024-03-23T13:09:46;1.23;;;0.50;;
39434;SDS011;66825;51.880;-0.518;2024-03-23T13:12:12;2.25;;;0.70;;
39434;SDS011;66825;51.880;-0.518;2024-03-23T13:14:38;1.98;;;0.60;;
39434;SDS011;66825;51.880;-0.518;2024-03-23T13:17:04;1.77;;;0.70;;
39434;SDS011;66825;51.880;-0.518;2024-03-23T13:19:30;1.35;;;0.63;;
39434;SDS011;66825;51.880;-0.518;2024-03-23T13:21:59;1.33;;;0.60;;
39434;SDS011;66825;51.880;-0.518;2024-03-23T13:24:26;1.85;;;0.52;;
39434;SDS011;66825;51.880;-0.518;2024-03-23T13:26:52;2.95;;;0.70;;
39434;SDS011;66825;51.880;-0.518;2024-03-23T13:29:18;1.25;;;0.57;;
39434;SDS011;66825;51.880;-0.518;2024-03-23T13:31:47;2.08;;;0.70;;
39434;SDS011;66825;51.880;-0.518;2024-03-23T13:34:14;1.10;;;0.50;;
39434;SDS011;66825;51.880;-0.518;2024-03-23T13:36:46;0.90;;;0.40;;
39434;SDS011;66825;51.880;-0.518;2024-03-23T13:39:12;1.48;;;0.60;;
39434;SDS011;66825;51.880;-0.518;2024-03-23T13:41:39;1.27;;;0.60;;
39434;SDS011;66825;51.880;-0.518;2024-03-23T13:44:06;1.88;;;0.60;;
39434;SDS011;66825;51.880;-0.518;2024-03-23T13:46:32;0.75;;;0.40;;
39434;SDS011;66825;51.880;-0.518;2024-03-23T13:48:58;1.00;;;0.50;;
39434;SDS011;66825;51.880;-0.518;2024-03-23T13:51:25;1.48;;;0.55;;
39434;SDS011;66825;51.880;-0.518;2024-03-23T13:53:53;1.30;;;0.40;;
39434;SDS011;66825;51.880;-0.518;2024-03-23T13:56:19;1.40;;;0.43;;
39434;SDS011;66825;51.880;-0.518;2024-03-23T13:58:45;1.08;;;0.43;;
39434;SDS011;66825;51.880;-0.518;2024-03-23T14:01:15;1.00;;;0.40;;
39434;SDS011;66825;51.880;-0.518;2024-03-23T14:03:41;0.82;;;0.40;;
39434;SDS011;66825;51.880;-0.518;2024-03-23T14:06:08;1.20;;;0.43;;
39434;SDS011;66825;51.880;-0.518;2024-03-23T14:08:37;1.55;;;0.47;;
39434;SDS011;66825;51.880;-0.518;2024-03-23T14:11:07;1.20;;;0.32;;
39434;SDS011;66825;51.880;-0.518;2024-03-23T14:13:34;1.25;;;0.40;;
39434;SDS011;66825;51.880;-0.518;2024-03-23T14:16:00;1.00;;;0.50;;
39434;SDS011;66825;51.880;-0.518;2024-03-23T14:18:25;1.00;;;0.40;;
39434;SDS011;66825;51.880;-0.518;2024-03-23T14:20:51;1.25;;;0.30;;
39434;SDS011;66825;51.880;-0.518;2024-03-23T14:23:18;1.23;;;0.50;;
39434;SDS011;66825;51.880;-0.518;2024-03-23T14:25:44;1.77;;;0.60;;
39434;SDS011;66825;51.880;-0.518;2024-03-23T14:28:10;1.00;;;0.43;;
39434;SDS011;66825;51.880;-0.518;2024-03-23T14:30:42;0.90;;;0.38;;
39434;SDS011;66825;51.880;-0.518;2024-03-23T14:33:08;1.40;;;0.50;;
39434;SDS011;66825;51.880;-0.518;2024-03-23T14:35:33;0.80;;;0.30;;
39434;SDS011;66825;51.880;-0.518;2024-03-23T14:37:59;0.90;;;0.30;;
39434;SDS011;66825;51.880;-0.518;2024-03-23T14:40:24;1.30;;;0.50;;
39434;SDS011;66825;51.880;-0.518;2024-03-23T14:42:53;0.70;;;0.35;;
39434;SDS011;66825;51.880;-0.518;2024-03-23T14:45:20;0.57;;;0.30;;
39434;SDS011;66825;51.880;-0.518;2024-03-23T14:47:46;1.63;;;0.40;;
39434;SDS011;66825;51.880;-0.518;2024-03-23T14:50:12;0.95;;;0.45;;
39434;SDS011;66825;51.880;-0.518;2024-03-23T14:52:45;0.88;;;0.35;;
39434;SDS011;66825;51.880;-0.518;2024-03-23T14:55:11;1.13;;;0.40;;
39434;SDS011;66825;51.880;-0.518;2024-03-23T14:57:39;1.08;;;0.40;;
39434;SDS011;66825;51.880;-0.518;2024-03-23T15:00:08;0.88;;;0.25;;
39434;SDS011;66825;51.880;-0.518;2024-03-23T15:05:04;0.73;;;0.20;;
39434;SDS011;66825;51.880;-0.518;2024-03-23T15:07:32;0.63;;;0.30;;
39434;SDS011;66825;51.880;-0.518;2024-03-23T15:09:58;0.82;;;0.30;;
39434;SDS011;66825;51.880;-0.518;2024-03-23T15:12:23;0.98;;;0.40;;
39434;SDS011;66825;51.880;-0.518;2024-03-23T15:14:48;1.15;;;0.40;;
39434;SDS011;66825;51.880;-0.518;2024-03-23T15:17:14;0.90;;;0.40;;
39434;SDS011;66825;51.880;-0.518;2024-03-23T15:19:39;0.65;;;0.30;;
39434;SDS011;66825;51.880;-0.518;2024-03-23T15:22:07;0.90;;;0.30;;
39434;SDS011;66825;51.880;-0.518;2024-03-23T15:24:34;0.45;;;0.30;;
39434;SDS011;66825;51.880;-0.518;2024-03-23T15:27:01;0.63;;;0.32;;
39434;SDS011;66825;51.880;-0.518;2024-03-23T15:29:26;0.63;;;0.22;;
39434;SDS011;66825;51.880;-0.518;2024-03-23T15:31:51;1.42;;;0.22;;